메인 페이지
METAR-TAF:

METAR-TAF

공항 :

테헤란 메흐라바드 국제공항

테헤란, 이란

위도: 35-41N, 경도: 051-21E, 고도: 1204m

현재 날씨관측

예보는 36분 전, 04:30시(UTC)에 발표되었습니다.
북동6kt
온도 8°C
습도 81%
기압 1022 hPa
시정: 6000m
고도 3500ft 상공 구름 보통
고도 8000ft 상공 흐림
약한비

METAR: OIII 150430Z 04006KT 6000 -RA SCT035 OVC080 08/05 Q1022 A3018

시각: 08:36 (05:06 UTC)

예보

예보는 5 시간 26분 전, 23:40시(UTC)에 발표되었습니다.
예보 대상 시간: 15일 00시부터 16일 06시까지 (UTC)
북북동8kt
시정: 5000m
고도 3000ft 상공 구름 조금, 적란운.
고도 3000ft 상공 구름 보통
고도 10000ft 상공 구름 많음
비, 박무
일시적
15일 00시부터 15일 05시까지 (UTC)
시정: 3000m
고도 2500ft 상공 구름 보통, 적란운.
고도 3000ft 상공 구름 보통
고도 7000ft 상공 흐림
박무, 비
전환 중
15일 06시부터 15일 08시까지 (UTC)
시정: 7000m
고도 3000ft 상공 구름 보통
고도 11000ft 상공 구름 보통
일시적
15일 10시부터 15일 17시까지 (UTC)
시정: 6000m
고도 3000ft 상공 구름 조금, 적란운.
고도 4000ft 상공 구름 보통
고도 8000ft 상공 흐림
전환 중
15일 21시부터 15일 23시까지 (UTC)
시정: 4000m
고도 3000ft 상공 구름 조금, 적란운.
고도 3500ft 상공 구름 보통
고도 8000ft 상공 흐림

TAF: OIII 142340Z 1500/1606 03004MPS 5000 RA BR FEW030CB SCT030 BKN100 TEMPO 1500/1505 3000 BR RA SCT025CB SCT030 OVC070 BECMG 1506/1508 7000 SCT030 SCT110 TEMPO 1510/1517 6000 FEW030CB SCT040 OVC080 BECMG 1521/1523 4000 RA FEW030CB SCT035 OVC080

4,000개 이상의 공항 관측 자료 및 예보 (METAR 및 TAF 보고).

지도상에서 검색 가능한 기상관측소가 노란 점과 빨간 점으로 표시되어 있습니다.

기상관측소 명을 보려면 표시 위로 마우스를 이동하세요.

날씨 관측과 예보를 보려면 클릭하세요.

지도 변경 : 확대하려면 엑스 표시가 있는 녹색 버튼, 축소하려면 빼기 표시가 있는 녹색 버튼, 다음 페이지의 지도를 보려면 녹색 화살표를 클릭하세요.


METAR-TAF: